Time;durP1;ratioP1;P1;durP2;ratioP2;P2;SDS_P1;SDS_P2;PMS_P1;PMS_P2;Temp;Humidity;BMP_temperature;BMP_pressure;BME280_temperature;BME280_humidity;BME280_pressure;Samples;Min_cycle;Max_cycle;Signal;HPM_P1;HPM_P2
2021/08/12 07:00:06;;;;;;;22.58;14.63;;;;;;;23.62;72.56;99181.06;5089574;28;20396;-63
2021/08/12 07:02:32;;;;;;;18.48;13.50;;;;;;;23.97;71.96;99179.81;5068023;28;20509;-64
2021/08/12 07:04:58;;;;;;;22.25;13.85;;;;;;;24.29;70.10;99176.97;5068205;28;20040;-62
2021/08/12 07:07:24;;;;;;;21.83;14.18;;;;;;;24.35;69.83;99166.56;5051601;28;20077;-63
2021/08/12 07:09:51;;;;;;;20.52;13.77;;;;;;;24.21;69.29;99180.28;5068304;28;20447;-64
2021/08/12 07:12:19;;;;;;;17.60;14.23;;;;;;;23.85;71.87;99159.53;5035248;28;20043;-63
2021/08/12 07:14:46;;;;;;;27.77;13.65;;;;;;;24.06;71.62;99166.47;5034724;28;20040;-63
2021/08/12 07:17:12;;;;;;;22.85;15.90;;;;;;;23.86;70.83;99142.50;5067626;28;20473;-63
2021/08/12 07:19:38;;;;;;;19.92;14.43;;;;;;;24.00;71.27;99123.44;5068088;28;20052;-63
2021/08/12 07:22:05;;;;;;;25.67;16.45;;;;;;;23.95;70.86;99112.31;5051071;28;20040;-63
2021/08/12 07:24:31;;;;;;;25.13;16.40;;;;;;;23.75;71.29;99101.53;5068989;28;20417;-63
2021/08/12 07:26:57;;;;;;;30.15;17.95;;;;;;;23.74;71.25;99110.53;5051439;28;20044;-63
2021/08/12 07:29:25;;;;;;;26.90;16.27;;;;;;;23.97;70.67;99116.53;5069244;28;20051;-63
2021/08/12 07:31:52;;;;;;;28.50;17.98;;;;;;;24.09;69.98;99109.25;5067634;28;20054;-63
2021/08/12 07:34:19;;;;;;;29.75;18.67;;;;;;;23.93;70.91;99146.34;5051253;28;20079;-64
2021/08/12 07:36:46;;;;;;;31.20;17.13;;;;;;;24.12;71.28;99133.03;5068959;28;20500;-64
2021/08/12 07:39:13;;;;;;;30.15;15.57;;;;;;;24.09;70.08;99133.28;5035026;28;20048;-63
2021/08/12 07:41:42;;;;;;;23.90;16.58;;;;;;;24.29;70.20;99137.72;5035170;28;20094;-63
2021/08/12 07:44:09;;;;;;;24.92;16.50;;;;;;;24.48;69.34;99126.19;5034728;28;20045;-62
2021/08/12 07:46:36;;;;;;;27.83;18.17;;;;;;;24.14;70.63;99140.91;5067875;28;20128;-62
2021/08/12 07:49:02;;;;;;;26.52;18.23;;;;;;;24.14;70.58;99124.88;5054447;28;20132;-62
2021/08/12 07:51:28;;;;;;;31.13;19.42;;;;;;;24.04;71.64;99111.47;5048983;28;20041;-63
2021/08/12 07:53:54;;;;;;;24.77;18.67;;;;;;;24.38;71.64;99123.50;5048964;28;20094;-63
2021/08/12 07:56:20;;;;;;;25.10;19.90;;;;;;;24.26;70.26;99127.28;5048778;28;20041;-63
2021/08/12 07:58:48;;;;;;;25.73;18.85;;;;;;;24.24;70.82;99133.75;5048000;28;20410;-64
2021/08/12 08:01:18;;;;;;;26.45;20.73;;;;;;;24.37;70.01;99155.72;4993945;28;20052;-63
2021/08/12 08:03:45;;;;;;;29.38;22.42;;;;;;;24.34;70.01;99148.00;5009088;28;20514;-66
2021/08/12 08:06:11;;;;;;;40.65;25.63;;;;;;;24.59;69.68;99157.31;5014444;28;20506;-65
2021/08/12 08:08:37;;;;;;;35.17;28.15;;;;;;;24.58;70.67;99159.16;5031797;28;20045;-65
2021/08/12 08:11:03;;;;;;;37.75;29.40;;;;;;;24.66;69.95;99166.47;5030530;28;20049;-64
2021/08/12 08:13:30;;;;;;;41.67;32.78;;;;;;;24.58;69.67;99148.47;5031527;28;20057;-65
2021/08/12 08:15:57;;;;;;;44.88;31.92;;;;;;;24.49;70.76;99145.75;5012866;28;20190;-63
2021/08/12 08:18:23;;;;;;;39.72;30.08;;;;;;;24.60;70.17;99146.50;5028733;28;20052;-65
2021/08/12 08:20:49;;;;;;;40.42;31.73;;;;;;;24.67;70.30;99154.78;5030732;28;20560;-71
2021/08/12 08:23:15;;;;;;;44.67;34.03;;;;;;;24.64;70.01;99153.25;5030489;28;20037;-66
2021/08/12 08:25:41;;;;;;;38.38;33.85;;;;;;;24.63;70.18;99156.06;5029322;28;20049;-67
2021/08/12 08:28:12;;;;;;;49.83;35.95;;;;;;;24.34;70.53;99167.53;5029678;28;20132;-63
2021/08/12 08:30:39;;;;;;;43.95;33.40;;;;;;;23.93;71.88;99163.22;5024806;28;20045;-65
2021/08/12 08:33:07;;;;;;;44.75;30.95;;;;;;;23.64;72.78;99171.09;5028631;28;20111;-65
2021/08/12 08:35:34;;;;;;;44.47;33.88;;;;;;;23.38;74.63;99181.31;5011493;28;20052;-64
2021/08/12 08:38:00;;;;;;;40.20;31.23;;;;;;;23.29;75.13;99191.94;5030218;28;20064;-65
2021/08/12 08:40:26;;;;;;;49.67;38.47;;;;;;;23.30;75.68;99183.81;5028378;28;20083;-63
2021/08/12 08:42:52;;;;;;;48.40;37.15;;;;;;;23.37;75.95;99184.13;5029817;28;20081;-66
2021/08/12 08:45:22;;;;;;;40.85;31.77;;;;;;;23.46;76.22;99169.97;5029279;28;20053;-65
2021/08/12 08:47:50;;;;;;;45.30;36.25;;;;;;;23.56;75.53;99176.25;5028286;28;20497;-65
2021/08/12 08:50:17;;;;;;;57.80;42.65;;;;;;;23.51;75.57;99146.41;5028731;28;20567;-64
2021/08/12 08:52:43;;;;;;;52.40;39.00;;;;;;;23.59;74.99;99151.94;5028092;28;20045;-65
2021/08/12 08:55:09;;;;;;;54.78;41.35;;;;;;;23.54;76.29;99167.50;5011278;28;20528;-64
2021/08/12 08:57:35;;;;;;;59.08;45.72;;;;;;;23.42;76.87;99176.56;5027094;28;20401;-64
2021/08/12 09:00:00;;;;;;;62.45;43.92;;;;;;;23.26;77.03;99162.84;5027533;28;20060;-64
2021/08/12 09:02:27;;;;;;;64.80;47.47;;;;;;;23.25;77.14;99170.00;5029324;28;20064;-65
2021/08/12 09:05:06;;;;;;;62.05;46.03;;;;;;;23.12;77.75;99162.22;5027268;28;20124;-65
2021/08/12 09:07:35;;;;;;;62.13;45.67;;;;;;;23.10;77.83;99166.84;5027367;28;20064;-66
2021/08/12 09:10:01;;;;;;;64.53;48.35;;;;;;;23.04;77.62;99163.84;5026636;28;20125;-64
2021/08/12 09:12:29;;;;;;;60.00;46.15;;;;;;;23.02;78.50;99161.25;5024854;28;20884;-66
2021/08/12 09:15:08;;;;;;;64.80;47.10;;;;;;;23.07;78.34;99159.09;5008800;28;20506;-67
2021/08/12 09:17:34;;;;;;;61.88;45.22;;;;;;;23.04;77.75;99166.50;5027214;28;20068;-65
2021/08/12 09:20:08;;;;;;;59.53;44.88;;;;;;;23.05;78.17;99161.03;5025810;28;20041;-65
2021/08/12 09:22:55;;;;;;;60.50;45.55;;;;;;;23.13;77.78;99174.56;5025763;28;20549;-65
2021/08/12 09:25:36;;;;;;;58.90;43.38;;;;;;;23.18;76.74;99182.19;5010337;28;20105;-65
2021/08/12 09:28:14;;;;;;;50.25;39.83;;;;;;;23.06;75.92;99184.06;5027111;28;20089;-65
2021/08/12 09:30:41;;;;;;;67.40;45.85;;;;;;;23.20;77.52;99174.03;5028297;28;20769;-65
2021/08/12 09:33:13;;;;;;;56.60;43.20;;;;;;;23.40;76.33;99173.19;4976953;28;20581;-64
2021/08/12 09:35:39;;;;;;;50.92;39.92;;;;;;;23.60;74.57;99177.66;5010094;28;20049;-64
2021/08/12 09:38:10;;;;;;;58.70;41.38;;;;;;;23.73;73.68;99182.78;5011036;28;20045;-65
2021/08/12 09:40:36;;;;;;;57.10;41.70;;;;;;;24.01;73.55;99179.41;5027378;28;20103;-65
2021/08/12 09:43:05;;;;;;;50.83;40.03;;;;;;;24.27;73.82;99182.44;5026436;28;20449;-66
2021/08/12 09:45:32;;;;;;;54.47;41.50;;;;;;;24.40;72.91;99177.69;5026596;28;20089;-65
2021/08/12 09:48:16;;;;;;;56.53;40.67;;;;;;;24.52;72.33;99180.22;5008194;28;20048;-64
2021/08/12 09:50:43;;;;;;;47.95;37.65;;;;;;;24.54;71.58;99175.63;5007907;28;20096;-64
2021/08/12 09:53:20;;;;;;;53.85;39.60;;;;;;;24.58;70.79;99185.06;5009408;28;20042;-64
2021/08/12 09:55:47;;;;;;;45.05;37.50;;;;;;;24.66;71.28;99182.53;4990674;28;20469;-66
2021/08/12 09:58:14;;;;;;;52.20;39.10;;;;;;;24.50;71.51;99166.16;5005177;28;20058;-64
2021/08/12 10:00:44;;;;;;;57.35;42.00;;;;;;;24.50;72.28;99171.50;4989521;28;20125;-65
2021/08/12 10:03:31;;;;;;;46.95;39.35;;;;;;;24.58;72.70;99169.00;5007531;28;20046;-65
2021/08/12 10:05:59;;;;;;;43.80;33.47;;;;;;;24.60;70.35;99173.22;5006432;28;20057;-66
2021/08/12 10:08:26;;;;;;;45.75;34.80;;;;;;;24.66;69.91;99177.19;5007498;28;20038;-66
2021/08/12 10:10:52;;;;;;;42.67;35.53;;;;;;;24.64;70.71;99184.50;5007659;28;20048;-65
2021/08/12 10:13:19;;;;;;;36.78;29.88;;;;;;;24.42;69.67;99190.06;5006970;28;20077;-64
2021/08/12 10:15:49;;;;;;;38.00;30.63;;;;;;;24.40;70.01;99185.72;5007281;28;20124;-65
2021/08/12 10:18:21;;;;;;;42.92;29.58;;;;;;;24.29;69.60;99175.13;4973524;28;20050;-64
2021/08/12 10:20:48;;;;;;;33.83;29.58;;;;;;;24.29;69.41;99193.84;5007852;28;20039;-64
2021/08/12 10:23:14;;;;;;;35.80;29.70;;;;;;;24.21;69.37;99193.66;5005537;28;20047;-65
2021/08/12 10:25:40;;;;;;;36.40;31.40;;;;;;;24.17;70.95;99184.22;5005140;28;20049;-65
2021/08/12 10:28:08;;;;;;;38.72;30.67;;;;;;;24.02;70.98;99188.25;5005525;28;20133;-65
2021/08/12 10:30:35;;;;;;;46.47;31.65;;;;;;;23.97;71.05;99195.84;4987197;28;20092;-65
2021/08/12 10:33:04;;;;;;;35.70;29.23;;;;;;;23.83;69.95;99194.38;5004151;28;20045;-65
2021/08/12 10:35:32;;;;;;;35.80;31.33;;;;;;;23.91;70.17;99199.06;4989578;28;20046;-67
2021/08/12 10:37:59;;;;;;;39.28;31.40;;;;;;;24.06;70.56;99189.69;5005080;28;20133;-66
2021/08/12 10:40:30;;;;;;;39.75;32.65;;;;;;;24.21;70.14;99176.78;5006125;28;20105;-64
2021/08/12 10:42:57;;;;;;;37.72;31.17;;;;;;;24.47;69.43;99186.00;5006412;28;20121;-65
2021/08/12 10:45:25;;;;;;;41.10;32.03;;;;;;;24.37;69.33;99183.31;4956192;28;20050;-65
2021/08/12 10:47:55;;;;;;;39.30;32.90;;;;;;;24.36;69.41;99197.66;4988729;28;20061;-65
2021/08/12 10:50:22;;;;;;;40.67;31.85;;;;;;;24.44;69.45;99196.13;4988421;28;21117;-66
2021/08/12 10:53:06;;;;;;;37.08;30.08;;;;;;;24.29;68.83;99196.53;4987773;28;20050;-65
2021/08/12 10:55:39;;;;;;;46.67;34.72;;;;;;;24.23;69.78;99201.53;4987885;28;20533;-66
2021/08/12 10:58:22;;;;;;;41.47;30.45;;;;;;;24.03;70.75;99197.97;4986065;28;20053;-65
2021/08/12 11:00:53;;;;;;;37.20;31.67;;;;;;;23.86;71.80;99193.28;4986548;28;20901;-67
2021/08/12 11:03:34;;;;;;;40.83;34.08;;;;;;;23.75;72.29;99213.72;4988109;28;20379;-66
2021/08/12 11:06:06;;;;;;;44.08;33.42;;;;;;;23.58;74.16;99217.00;4971932;28;20152;-65
2021/08/12 11:08:48;;;;;;;48.30;35.38;;;;;;;23.37;74.36;99216.16;5004448;28;20054;-64
2021/08/12 11:11:35;;;;;;;58.63;43.25;;;;;;;23.25;75.82;99212.69;4987297;28;20065;-64
2021/08/12 11:14:08;;;;;;;58.60;42.90;;;;;;;23.10;76.32;99219.34;4974153;28;20054;-64
2021/08/12 11:16:42;;;;;;;62.33;42.38;;;;;;;23.01;76.22;99220.94;5008813;28;20147;-63
2021/08/12 11:19:09;;;;;;;65.70;45.40;;;;;;;23.03;76.32;99218.13;4989905;28;20041;-64
2021/08/12 11:21:42;;;;;;;61.60;43.65;;;;;;;23.09;76.40;99221.16;5008921;28;20041;-65
2021/08/12 11:24:22;;;;;;;66.03;46.45;;;;;;;23.17;76.70;99217.84;5023497;28;20060;-64
2021/08/12 11:26:48;;;;;;;66.93;48.28;;;;;;;23.23;76.34;99227.16;4988707;28;20058;-64
2021/08/12 11:29:29;;;;;;;73.72;48.55;;;;;;;23.23;76.69;99232.50;5009058;28;20057;-63
2021/08/12 11:32:04;;;;;;;68.47;49.38;;;;;;;23.08;77.58;99207.94;5025985;28;20489;-63
2021/08/12 11:34:50;;;;;;;71.05;49.97;;;;;;;23.10;78.21;99220.19;5027083;28;20049;-70
2021/08/12 11:37:20;;;;;;;76.13;50.03;;;;;;;23.22;79.12;99220.13;5011702;28;20395;-67
2021/08/12 11:39:58;;;;;;;74.38;50.05;;;;;;;23.25;79.26;99225.19;5029279;28;20088;-65
2021/08/12 11:42:34;;;;;;;68.15;48.75;;;;;;;23.35;77.84;99226.97;5028202;28;20045;-66
2021/08/12 11:45:18;;;;;;;70.28;49.08;;;;;;;23.36;76.81;99203.78;5030519;28;20060;-65
2021/08/12 11:47:53;;;;;;;64.95;47.38;;;;;;;23.65;76.09;99211.97;5031125;28;20143;-65
2021/08/12 11:50:19;;;;;;;66.35;46.55;;;;;;;23.98;75.36;99217.06;5027816;28;20048;-67
2021/08/12 11:52:47;;;;;;;63.95;47.17;;;;;;;24.15;74.01;99212.06;5028487;28;20033;-66
2021/08/12 11:55:16;;;;;;;55.55;43.25;;;;;;;24.26;73.01;99219.97;4995234;28;20510;-67
2021/08/12 11:57:55;;;;;;;55.20;40.53;;;;;;;24.38;71.68;99216.22;5028763;28;20045;-67
2021/08/12 12:00:30;;;;;;;48.60;37.13;;;;;;;24.22;71.96;99224.75;5029655;28;20041;-66
2021/08/12 12:02:57;;;;;;;50.92;39.45;;;;;;;24.00;72.71;99211.59;5027431;28;20144;-66
2021/08/12 12:05:34;;;;;;;51.38;38.15;;;;;;;24.03;72.93;99230.03;5012889;28;20046;-66
2021/08/12 12:08:08;;;;;;;52.17;38.63;;;;;;;24.17;72.79;99228.81;5028345;28;20044;-67
2021/08/12 12:10:45;;;;;;;51.60;37.53;;;;;;;24.10;72.36;99223.16;5027362;28;20037;-66
2021/08/12 12:13:13;;;;;;;52.03;37.20;;;;;;;24.03;72.75;99205.97;5028638;28;20049;-65
2021/08/12 12:15:53;;;;;;;49.80;36.00;;;;;;;24.07;73.05;99223.44;5010715;28;20045;-71
2021/08/12 12:18:42;;;;;;;38.40;30.08;;;;;;;24.00;71.58;99219.63;4994163;28;20136;-67
2021/08/12 12:21:13;;;;;;;49.45;35.95;;;;;;;24.17;72.66;99221.63;4994821;28;20168;-71
2021/08/12 12:23:44;;;;;;;45.42;32.90;;;;;;;23.87;73.62;99227.00;5028264;28;20512;-66
2021/08/12 12:26:21;;;;;;;45.20;33.55;;;;;;;23.89;73.69;99219.72;5023955;28;20053;-66
2021/08/12 12:28:49;;;;;;;48.58;34.70;;;;;;;23.77;74.25;99227.78;5027332;28;20106;-66
2021/08/12 12:31:16;;;;;;;49.10;33.60;;;;;;;23.57;75.47;99226.00;5028507;28;20076;-65
2021/08/12 12:33:42;;;;;;;49.95;35.45;;;;;;;23.35;75.46;99216.28;5029604;28;20091;-68
2021/08/12 12:36:08;;;;;;;54.55;33.35;;;;;;;23.01;77.43;99217.41;5029414;28;20043;-64
2021/08/12 12:38:35;;;;;;;51.40;36.05;;;;;;;22.85;78.46;99222.34;5027497;28;20049;-66
2021/08/12 12:41:09;;;;;;;59.20;39.25;;;;;;;23.34;80.18;99224.41;5028503;28;20072;-65
2021/08/12 12:43:36;;;;;;;44.17;33.17;;;;;;;23.50;76.43;99223.94;5026126;28;20049;-65
2021/08/12 12:46:02;;;;;;;48.78;33.78;;;;;;;23.74;77.02;99211.19;5028929;28;20156;-64
2021/08/12 12:48:33;;;;;;;49.75;35.92;;;;;;;23.96;75.76;99203.00;4991173;28;20135;-67
2021/08/12 12:51:04;;;;;;;53.67;36.50;;;;;;;24.26;74.14;99212.81;5010364;28;20390;-66
2021/08/12 12:53:43;;;;;;;54.17;35.03;;;;;;;24.22;72.63;99213.22;5009694;28;20316;-64
2021/08/12 12:56:20;;;;;;;60.58;38.03;;;;;;;24.00;74.00;99216.94;5007957;28;20041;-64
2021/08/12 12:58:46;;;;;;;59.88;38.72;;;;;;;23.89;74.66;99206.34;5008349;28;20250;-68
2021/08/12 13:01:22;;;;;;;50.85;35.50;;;;;;;23.81;74.43;99224.88;4992499;28;20132;-67
2021/08/12 13:03:59;;;;;;;58.28;37.22;;;;;;;23.87;74.48;99227.00;5008422;28;20074;-65
2021/08/12 13:06:42;;;;;;;59.85;38.40;;;;;;;23.81;74.40;99211.53;5007750;28;20046;-68
2021/08/12 13:09:36;;;;;;;58.55;37.22;;;;;;;23.90;73.99;99202.69;5008918;28;20041;-65
2021/08/12 13:12:23;;;;;;;54.78;34.88;;;;;;;24.19;73.19;99216.16;4991536;28;20045;-64
2021/08/12 13:14:49;;;;;;;51.78;34.03;;;;;;;23.98;73.17;99219.75;4991157;28;20056;-66
2021/08/12 13:17:35;;;;;;;51.88;33.30;;;;;;;24.06;73.41;99219.06;5009415;28;20050;-66
2021/08/12 13:20:16;;;;;;;56.38;34.30;;;;;;;24.32;73.18;99214.97;4990307;28;20049;-65
2021/08/12 13:22:44;;;;;;;54.75;34.58;;;;;;;24.63;72.41;99214.91;4991860;28;20057;-65
2021/08/12 13:25:19;;;;;;;45.78;31.23;;;;;;;24.58;71.63;99222.50;5018427;28;21041;-66
2021/08/12 13:27:50;;;;;;;44.83;29.45;;;;;;;24.51;71.32;99226.66;5007734;28;20064;-66
2021/08/12 13:30:52;;;;;;;53.38;30.38;;;;;;;24.49;73.38;99234.00;5006840;28;20141;-66
2021/08/12 13:33:23;;;;;;;44.38;28.45;;;;;;;24.57;71.69;99212.78;4988303;28;20517;-66
2021/08/12 13:35:49;;;;;;;37.17;25.08;;;;;;;24.48;69.48;99216.25;5008210;28;20129;-67
2021/08/12 13:38:14;;;;;;;38.88;26.15;;;;;;;24.32;69.70;99222.97;5008554;28;20132;-65
2021/08/12 13:40:42;;;;;;;41.92;26.23;;;;;;;24.36;68.72;99203.00;5022092;28;20211;-66
2021/08/12 13:43:08;;;;;;;35.00;23.40;;;;;;;24.27;68.17;99222.53;5013640;28;20053;-65
2021/08/12 13:45:34;;;;;;;33.33;24.20;;;;;;;24.30;69.29;99229.44;5010745;28;20481;-65
2021/08/12 13:47:59;;;;;;;31.23;22.70;;;;;;;24.13;66.95;99212.19;5027021;28;20037;-67
2021/08/12 13:50:25;;;;;;;34.90;21.58;;;;;;;24.10;67.86;99217.81;5010405;28;20140;-67
2021/08/12 13:52:51;;;;;;;28.20;20.20;;;;;;;24.00;67.68;99227.63;5029278;28;20037;-65
2021/08/12 13:55:16;;;;;;;30.02;21.77;;;;;;;23.87;68.07;99217.19;5009937;28;20045;-74
2021/08/12 13:57:42;;;;;;;32.13;22.75;;;;;;;24.05;68.09;99239.59;5028458;28;20543;-68
2021/08/12 14:00:09;;;;;;;28.60;21.55;;;;;;;24.11;68.59;99238.22;5027567;28;20414;-68
2021/08/12 14:02:39;;;;;;;29.85;21.20;;;;;;;24.08;68.94;99219.78;5027495;28;20568;-66
2021/08/12 14:05:05;;;;;;;34.25;22.45;;;;;;;24.09;68.29;99240.19;5010675;28;20048;-79
2021/08/12 14:07:31;;;;;;;31.50;21.90;;;;;;;24.11;68.79;99234.69;5027893;28;20087;-75
2021/08/12 14:09:56;;;;;;;28.52;21.55;;;;;;;24.08;68.94;99225.97;5025987;28;20445;-77
2021/08/12 14:12:22;;;;;;;33.95;22.48;;;;;;;24.21;68.16;99235.56;5009423;28;20453;-70
2021/08/12 14:14:48;;;;;;;33.60;21.45;;;;;;;24.01;68.55;99219.47;5025645;28;20071;-65
2021/08/12 14:17:14;;;;;;;71.88;58.20;;;;;;;24.03;68.53;99246.06;5028488;28;20187;-71
2021/08/12 14:19:40;;;;;;;33.63;22.83;;;;;;;24.01;68.57;99248.03;5027580;28;20077;-69
2021/08/12 14:22:06;;;;;;;33.65;22.83;;;;;;;24.34;69.10;99246.91;5029090;28;20041;-69
2021/08/12 14:24:34;;;;;;;31.58;22.33;;;;;;;24.17;68.45;99239.50;5010069;28;20033;-69
2021/08/12 14:27:04;;;;;;;30.23;22.48;;;;;;;24.07;69.08;99239.47;5027678;28;20030;-70
2021/08/12 14:29:31;;;;;;;29.88;22.52;;;;;;;23.86;69.54;99236.00;5010835;28;20052;-71
2021/08/12 14:31:58;;;;;;;30.17;22.70;;;;;;;24.09;69.15;99248.19;5010160;28;20065;-68
2021/08/12 14:34:24;;;;;;;28.02;20.23;;;;;;;23.81;68.58;99240.91;5028502;28;20049;-70
2021/08/12 14:36:50;;;;;;;30.40;22.23;;;;;;;23.64;69.43;99235.16;5027174;28;20043;-69
2021/08/12 14:39:16;;;;;;;31.38;21.60;;;;;;;23.63;69.54;99246.81;5028041;28;20120;-73
2021/08/12 14:41:43;;;;;;;38.88;22.67;;;;;;;23.53;69.88;99240.56;5026727;28;20083;-70
2021/08/12 14:44:12;;;;;;;30.83;20.63;;;;;;;23.45;70.56;99245.72;5025111;28;20037;-70
2021/08/12 14:46:39;;;;;;;33.03;22.67;;;;;;;23.48;70.29;99236.59;5026927;28;20041;-70
2021/08/12 14:49:05;;;;;;;32.63;22.20;;;;;;;23.84;69.49;99248.66;5039994;28;20164;-70
2021/08/12 14:51:30;;;;;;;31.17;22.35;;;;;;;23.70;69.96;99248.00;5025860;28;20215;-70
2021/08/12 14:53:56;;;;;;;30.33;20.55;;;;;;;23.61;69.26;99238.09;5025078;28;20470;-71
2021/08/12 14:56:22;;;;;;;34.75;22.70;;;;;;;23.91;70.08;99239.13;5023972;28;20041;-70
2021/08/12 14:58:49;;;;;;;26.98;21.60;;;;;;;23.65;69.48;99250.22;5022550;28;20465;-68
2021/08/12 15:01:14;;;;;;;29.63;21.33;;;;;;;23.45;70.18;99248.38;5024946;28;20482;-71
2021/08/12 15:03:40;;;;;;;35.40;22.35;;;;;;;23.32;71.72;99261.06;5024083;28;20046;-69
2021/08/12 15:06:06;;;;;;;33.63;22.65;;;;;;;23.17;71.40;99249.03;5022345;28;20525;-70
2021/08/12 15:08:31;;;;;;;32.42;22.73;;;;;;;23.10;71.86;99265.53;5025143;28;20060;-70
2021/08/12 15:10:57;;;;;;;32.05;22.70;;;;;;;23.12;72.06;99263.59;5009291;28;20354;-68
2021/08/12 15:13:23;;;;;;;27.83;20.95;;;;;;;23.19;72.24;99263.09;5027166;28;20560;-70
2021/08/12 15:15:49;;;;;;;35.33;23.58;;;;;;;23.26;72.29;99269.59;5027311;28;20638;-69
2021/08/12 15:18:14;;;;;;;29.83;21.88;;;;;;;23.32;72.34;99274.41;5028509;28;20049;-70
2021/08/12 15:20:41;;;;;;;26.90;21.77;;;;;;;23.42;71.80;99270.00;4994975;28;20041;-69
2021/08/12 15:23:07;;;;;;;28.77;22.40;;;;;;;23.46;71.65;99271.41;5028035;28;20518;-70
2021/08/12 15:25:33;;;;;;;35.75;21.48;;;;;;;23.54;72.45;99282.28;5029748;28;20049;-70
2021/08/12 15:27:58;;;;;;;30.52;20.83;;;;;;;23.57;72.77;99284.72;5028231;28;20052;-68
2021/08/12 15:30:24;;;;;;;31.55;21.60;;;;;;;23.60;71.88;99291.63;5011553;28;20041;-71
2021/08/12 15:32:52;;;;;;;28.65;20.15;;;;;;;23.40;72.11;99283.47;5028190;28;20041;-70
2021/08/12 15:35:19;;;;;;;37.22;21.90;;;;;;;23.45;72.23;99280.41;5027933;28;20057;-70
2021/08/12 15:37:45;;;;;;;32.85;22.70;;;;;;;23.54;71.95;99287.63;5027276;28;20052;-71
2021/08/12 15:40:12;;;;;;;34.28;22.95;;;;;;;23.59;72.30;99292.63;5006436;28;20474;-71
2021/08/12 15:42:39;;;;;;;34.35;21.88;;;;;;;23.53;72.37;99288.63;5008801;28;20056;-71
2021/08/12 15:45:09;;;;;;;27.38;21.95;;;;;;;23.56;73.16;99283.03;5007776;28;20177;-66
2021/08/12 15:47:39;;;;;;;29.15;21.92;;;;;;;23.56;72.62;99287.53;5009923;28;20041;-68
2021/08/12 15:50:06;;;;;;;28.38;21.13;;;;;;;23.63;73.25;99289.56;5008676;28;20096;-66
2021/08/12 15:52:32;;;;;;;27.17;21.65;;;;;;;23.54;73.33;99274.28;5009067;28;20588;-66
2021/08/12 15:54:58;;;;;;;30.60;21.17;;;;;;;23.65;72.59;99290.25;5007445;28;20053;-68
2021/08/12 15:57:24;;;;;;;29.05;21.52;;;;;;;23.57;73.38;99287.41;5007789;28;20398;-69
2021/08/12 15:59:49;;;;;;;25.77;19.30;;;;;;;23.54;73.49;99284.97;5006945;28;20093;-69
2021/08/12 16:02:16;;;;;;;23.50;17.17;;;;;;;23.48;72.35;99290.81;5007002;28;20447;-70
2021/08/12 16:04:41;;;;;;;28.98;20.25;;;;;;;23.51;73.79;99293.25;5006828;28;20128;-68
2021/08/12 16:07:07;;;;;;;24.05;17.80;;;;;;;23.45;72.75;99288.41;5017857;28;20128;-69
2021/08/12 16:09:33;;;;;;;25.17;15.00;;;;;;;23.36;70.90;99287.38;5000864;28;20046;-69
2021/08/12 16:11:59;;;;;;;17.88;13.38;;;;;;;23.33;70.31;99287.63;5016482;28;20037;-69
2021/08/12 16:14:25;;;;;;;19.50;13.43;;;;;;;23.29;69.91;99282.69;5010327;28;20077;-70
2021/08/12 16:16:51;;;;;;;19.65;13.00;;;;;;;23.28;70.00;99289.84;5028534;28;20111;-69
2021/08/12 16:19:17;;;;;;;21.83;13.80;;;;;;;23.25;70.52;99289.25;5026125;28;20045;-70
2021/08/12 16:21:43;;;;;;;16.30;13.10;;;;;;;23.21;69.93;99288.66;5027435;28;20049;-70
2021/08/12 16:24:10;;;;;;;17.95;12.48;;;;;;;23.09;70.08;99284.34;5010710;28;20045;-70
2021/08/12 16:26:35;;;;;;;17.55;13.20;;;;;;;23.12;70.43;99300.94;5026784;28;20045;-69
2021/08/12 16:29:01;;;;;;;21.30;13.18;;;;;;;23.05;70.85;99294.44;5029673;28;20102;-69
2021/08/12 16:31:27;;;;;;;20.25;13.07;;;;;;;22.91;70.92;99281.34;5026924;28;20041;-68
2021/08/12 16:33:53;;;;;;;19.00;12.55;;;;;;;22.83;71.23;99284.66;5028440;28;20090;-69
2021/08/12 16:36:19;;;;;;;21.40;13.50;;;;;;;22.86;71.79;99296.03;5025293;28;20075;-69
2021/08/12 16:38:46;;;;;;;22.10;13.88;;;;;;;22.68;72.06;99285.88;5029152;28;20045;-69
2021/08/12 16:41:12;;;;;;;23.42;14.85;;;;;;;22.71;72.50;99296.28;5028951;28;20041;-69
2021/08/12 16:43:38;;;;;;;23.70;13.63;;;;;;;22.68;72.64;99301.03;5011954;28;20447;-69
2021/08/12 16:46:04;;;;;;;20.60;12.93;;;;;;;22.59;72.30;99296.44;4993213;28;20145;-71
2021/08/12 16:48:29;;;;;;;21.65;13.45;;;;;;;22.56;72.94;99297.53;5028600;28;20091;-68
2021/08/12 16:50:57;;;;;;;19.40;13.88;;;;;;;22.50;73.19;99304.22;4995476;28;20049;-70
2021/08/12 16:53:23;;;;;;;23.10;14.10;;;;;;;22.46;73.06;99312.56;5011356;28;20072;-70
2021/08/12 16:55:49;;;;;;;23.17;14.77;;;;;;;22.42;73.33;99316.44;5029468;28;20037;-69
2021/08/12 16:58:16;;;;;;;20.95;13.63;;;;;;;22.38;73.51;99320.34;5010796;28;20061;-70
2021/08/12 17:00:42;;;;;;;28.20;14.35;;;;;;;22.32;73.70;99320.81;5029573;28;20038;-67
2021/08/12 17:03:08;;;;;;;16.95;13.50;;;;;;;22.27;73.88;99321.16;5028955;28;20552;-67
2021/08/12 17:05:33;;;;;;;24.52;13.88;;;;;;;22.17;74.23;99306.88;5030166;28;20045;-66
2021/08/12 17:07:59;;;;;;;21.83;16.67;;;;;;;22.23;74.15;99327.69;5029697;28;20462;-70
2021/08/12 17:10:25;;;;;;;21.65;13.82;;;;;;;22.12;74.08;99309.03;5027818;28;20068;-67
2021/08/12 17:12:50;;;;;;;22.02;13.63;;;;;;;22.15;73.91;99317.66;4991857;28;20073;-67
2021/08/12 17:15:22;;;;;;;22.77;15.68;;;;;;;22.23;76.40;99326.84;5028576;28;20111;-66
2021/08/12 17:17:48;;;;;;;29.05;16.23;;;;;;;22.18;76.73;99332.53;5026303;28;20046;-67
2021/08/12 17:20:14;;;;;;;23.83;17.17;;;;;;;22.10;77.44;99334.97;5027130;28;20061;-64
2021/08/12 17:22:39;;;;;;;27.15;16.90;;;;;;;21.95;77.86;99328.13;5028220;28;20085;-65
2021/08/12 17:25:06;;;;;;;27.35;17.42;;;;;;;21.85;78.36;99334.16;5026455;28;20034;-66
2021/08/12 17:27:31;;;;;;;27.73;18.20;;;;;;;21.72;79.22;99333.41;5027787;28;20053;-67
2021/08/12 17:30:01;;;;;;;35.33;18.52;;;;;;;21.63;78.82;99339.44;5027630;28;20049;-65
2021/08/12 17:32:27;;;;;;;26.67;18.83;;;;;;;21.50;79.84;99323.53;5023795;28;20102;-67
2021/08/12 17:34:53;;;;;;;25.48;17.63;;;;;;;21.48;79.03;99338.78;5026021;28;20038;-66
2021/08/12 17:37:19;;;;;;;27.35;19.10;;;;;;;21.33;80.39;99318.63;4995033;28;20076;-65
2021/08/12 17:39:45;;;;;;;35.08;21.35;;;;;;;21.24;81.04;99322.00;5025883;28;20095;-64
2021/08/12 17:42:11;;;;;;;33.25;20.75;;;;;;;21.16;81.43;99319.88;5009702;28;20060;-66
2021/08/12 17:44:37;;;;;;;35.45;21.65;;;;;;;21.08;81.91;99324.06;5027813;28;20112;-67
2021/08/12 17:47:03;;;;;;;32.72;21.20;;;;;;;21.10;82.50;99348.72;5025965;28;20045;-64
2021/08/12 17:49:29;;;;;;;32.83;20.23;;;;;;;21.02;81.48;99349.31;5025657;28;20057;-66
2021/08/12 17:51:55;;;;;;;28.10;19.52;;;;;;;21.02;81.53;99351.09;5026717;28;20148;-66
2021/08/12 17:54:20;;;;;;;25.17;19.50;;;;;;;20.93;80.93;99334.03;5027239;28;20049;-66
2021/08/12 17:56:46;;;;;;;31.77;18.55;;;;;;;21.03;81.01;99353.66;5028311;28;20144;-67
2021/08/12 17:59:12;;;;;;;31.55;20.38;;;;;;;20.98;81.82;99357.63;5027192;28;20502;-67
2021/08/12 18:01:38;;;;;;;33.60;22.98;;;;;;;20.93;82.50;99366.78;5026834;28;20413;-66
2021/08/12 18:04:05;;;;;;;27.40;19.73;;;;;;;20.89;82.03;99364.44;5026024;28;20041;-66
2021/08/12 18:06:32;;;;;;;49.85;34.70;;;;;;;20.80;83.07;99362.44;5026373;28;20107;-66
2021/08/12 18:08:59;;;;;;;32.97;21.52;;;;;;;20.82;82.16;99364.06;5025015;28;20049;-71
2021/08/12 18:11:25;;;;;;;22.48;16.92;;;;;;;20.78;80.84;99362.53;5008896;28;20453;-66
2021/08/12 18:13:50;;;;;;;25.83;17.63;;;;;;;20.68;81.04;99355.34;5025614;28;20055;-66
2021/08/12 18:16:16;;;;;;;29.02;21.30;;;;;;;20.73;82.73;99374.47;5027660;28;20037;-67
2021/08/12 18:18:43;;;;;;;31.55;22.02;;;;;;;20.65;83.35;99363.53;5008913;28;20055;-66
2021/08/12 18:21:09;;;;;;;28.75;19.23;;;;;;;20.61;82.24;99371.72;5027404;28;20096;-65
2021/08/12 18:23:35;;;;;;;26.52;19.73;;;;;;;20.61;82.32;99365.56;5027004;28;20045;-66